sensor_id;sensor_type;location;lat;lon;timestamp;temperature;humidity
67194;DHT22;54121;53.508;49.422;2022-11-12T00:00:55;9.70;70.80
67194;DHT22;54121;53.508;49.422;2022-11-12T00:03:24;9.80;69.80
67194;DHT22;54121;53.508;49.422;2022-11-12T00:05:51;9.80;70.00
67194;DHT22;54121;53.508;49.422;2022-11-12T00:08:18;9.80;70.00
67194;DHT22;54121;53.508;49.422;2022-11-12T00:10:45;9.70;70.20
67194;DHT22;54121;53.508;49.422;2022-11-12T00:13:12;9.80;69.90
67194;DHT22;54121;53.508;49.422;2022-11-12T00:15:39;9.80;70.00
67194;DHT22;54121;53.508;49.422;2022-11-12T00:18:06;9.80;69.00
67194;DHT22;54121;53.508;49.422;2022-11-12T00:20:33;9.80;69.40
67194;DHT22;54121;53.508;49.422;2022-11-12T00:22:59;9.80;70.10
67194;DHT22;54121;53.508;49.422;2022-11-12T00:25:26;9.70;69.90
67194;DHT22;54121;53.508;49.422;2022-11-12T00:27:53;9.60;70.60
67194;DHT22;54121;53.508;49.422;2022-11-12T00:30:20;9.60;70.30
67194;DHT22;54121;53.508;49.422;2022-11-12T00:32:46;9.60;69.70
67194;DHT22;54121;53.508;49.422;2022-11-12T00:35:13;9.60;70.40
67194;DHT22;54121;53.508;49.422;2022-11-12T00:37:39;9.60;70.00
67194;DHT22;54121;53.508;49.422;2022-11-12T00:40:07;9.50;70.10
67194;DHT22;54121;53.508;49.422;2022-11-12T00:42:33;9.60;70.30
67194;DHT22;54121;53.508;49.422;2022-11-12T00:45:00;9.50;69.90
67194;DHT22;54121;53.508;49.422;2022-11-12T00:47:27;9.50;70.70
67194;DHT22;54121;53.508;49.422;2022-11-12T00:49:53;9.60;70.10
67194;DHT22;54121;53.508;49.422;2022-11-12T00:52:20;9.70;69.40
67194;DHT22;54121;53.508;49.422;2022-11-12T00:54:47;9.60;69.50
67194;DHT22;54121;53.508;49.422;2022-11-12T00:57:13;9.60;70.00
67194;DHT22;54121;53.508;49.422;2022-11-12T00:59:40;9.70;69.50
67194;DHT22;54121;53.508;49.422;2022-11-12T01:02:06;9.60;69.90
67194;DHT22;54121;53.508;49.422;2022-11-12T01:04:33;9.70;69.50
67194;DHT22;54121;53.508;49.422;2022-11-12T01:06:59;9.70;69.70
67194;DHT22;54121;53.508;49.422;2022-11-12T01:09:26;9.80;69.20
67194;DHT22;54121;53.508;49.422;2022-11-12T01:11:53;9.70;69.50
67194;DHT22;54121;53.508;49.422;2022-11-12T01:14:19;9.70;69.30
67194;DHT22;54121;53.508;49.422;2022-11-12T01:16:46;9.70;69.40
67194;DHT22;54121;53.508;49.422;2022-11-12T01:19:13;9.60;69.80
67194;DHT22;54121;53.508;49.422;2022-11-12T01:21:41;9.60;69.90
67194;DHT22;54121;53.508;49.422;2022-11-12T01:24:09;9.60;69.70
67194;DHT22;54121;53.508;49.422;2022-11-12T01:26:36;9.60;69.90
67194;DHT22;54121;53.508;49.422;2022-11-12T01:29:03;9.50;70.30
67194;DHT22;54121;53.508;49.422;2022-11-12T01:31:34;9.60;70.30
67194;DHT22;54121;53.508;49.422;2022-11-12T01:34:07;9.50;70.30
67194;DHT22;54121;53.508;49.422;2022-11-12T01:36:36;9.50;70.50
67194;DHT22;54121;53.508;49.422;2022-11-12T01:39:05;9.80;70.00
67194;DHT22;54121;53.508;49.422;2022-11-12T01:41:33;9.80;69.50
67194;DHT22;54121;53.508;49.422;2022-11-12T01:47:05;9.40;69.90
67194;DHT22;54121;53.508;49.422;2022-11-12T01:51:59;9.60;69.40
67194;DHT22;54121;53.508;49.422;2022-11-12T01:54:30;9.40;69.80
67194;DHT22;54121;53.508;49.422;2022-11-12T01:56:57;9.40;70.60
67194;DHT22;54121;53.508;49.422;2022-11-12T01:59:28;9.30;71.30
67194;DHT22;54121;53.508;49.422;2022-11-12T02:01:57;9.30;70.90
67194;DHT22;54121;53.508;49.422;2022-11-12T02:04:25;9.30;71.30
67194;DHT22;54121;53.508;49.422;2022-11-12T02:06:54;9.50;70.60
67194;DHT22;54121;53.508;49.422;2022-11-12T02:09:21;9.40;70.40
67194;DHT22;54121;53.508;49.422;2022-11-12T02:11:47;9.30;71.10
67194;DHT22;54121;53.508;49.422;2022-11-12T02:14:14;9.40;70.90
67194;DHT22;54121;53.508;49.422;2022-11-12T02:16:45;9.40;71.00
67194;DHT22;54121;53.508;49.422;2022-11-12T02:19:14;9.60;70.20
67194;DHT22;54121;53.508;49.422;2022-11-12T02:21:41;9.60;70.00
67194;DHT22;54121;53.508;49.422;2022-11-12T02:26:41;9.70;69.00
67194;DHT22;54121;53.508;49.422;2022-11-12T02:29:09;9.70;69.60
67194;DHT22;54121;53.508;49.422;2022-11-12T02:31:36;9.70;69.20
67194;DHT22;54121;53.508;49.422;2022-11-12T02:34:03;9.50;70.10
67194;DHT22;54121;53.508;49.422;2022-11-12T02:36:29;9.60;69.80
67194;DHT22;54121;53.508;49.422;2022-11-12T02:38:56;9.60;69.80
67194;DHT22;54121;53.508;49.422;2022-11-12T02:41:23;9.50;70.50
67194;DHT22;54121;53.508;49.422;2022-11-12T02:43:50;9.50;70.20
67194;DHT22;54121;53.508;49.422;2022-11-12T02:46:17;9.50;69.70
67194;DHT22;54121;53.508;49.422;2022-11-12T02:48:43;9.60;69.90
67194;DHT22;54121;53.508;49.422;2022-11-12T02:51:10;9.50;71.70
67194;DHT22;54121;53.508;49.422;2022-11-12T02:53:36;9.60;71.90
67194;DHT22;54121;53.508;49.422;2022-11-12T02:56:03;9.60;72.40
67194;DHT22;54121;53.508;49.422;2022-11-12T02:58:30;9.50;73.40
67194;DHT22;54121;53.508;49.422;2022-11-12T03:00:57;9.60;73.90
67194;DHT22;54121;53.508;49.422;2022-11-12T03:03:23;9.30;73.70
67194;DHT22;54121;53.508;49.422;2022-11-12T03:05:55;9.30;76.00
67194;DHT22;54121;53.508;49.422;2022-11-12T03:08:22;9.40;74.80
67194;DHT22;54121;53.508;49.422;2022-11-12T03:10:49;9.40;75.30
67194;DHT22;54121;53.508;49.422;2022-11-12T03:13:16;9.30;75.60
67194;DHT22;54121;53.508;49.422;2022-11-12T03:15:43;9.40;76.10
67194;DHT22;54121;53.508;49.422;2022-11-12T03:18:10;9.30;77.20
67194;DHT22;54121;53.508;49.422;2022-11-12T03:20:36;9.30;76.70
67194;DHT22;54121;53.508;49.422;2022-11-12T03:23:05;9.30;76.00
67194;DHT22;54121;53.508;49.422;2022-11-12T03:25:33;9.30;78.30
67194;DHT22;54121;53.508;49.422;2022-11-12T03:28:05;9.20;76.00
67194;DHT22;54121;53.508;49.422;2022-11-12T03:30:37;9.10;77.50
67194;DHT22;54121;53.508;49.422;2022-11-12T03:33:04;9.00;77.40
67194;DHT22;54121;53.508;49.422;2022-11-12T03:35:32;8.90;77.70
67194;DHT22;54121;53.508;49.422;2022-11-12T03:37:59;8.90;77.50
67194;DHT22;54121;53.508;49.422;2022-11-12T03:40:26;9.00;77.60
67194;DHT22;54121;53.508;49.422;2022-11-12T03:42:53;9.00;77.10
67194;DHT22;54121;53.508;49.422;2022-11-12T03:45:21;9.00;79.00
67194;DHT22;54121;53.508;49.422;2022-11-12T03:47:50;9.00;79.00
67194;DHT22;54121;53.508;49.422;2022-11-12T03:50:18;9.00;77.70
67194;DHT22;54121;53.508;49.422;2022-11-12T03:52:50;9.10;77.30
67194;DHT22;54121;53.508;49.422;2022-11-12T03:55:19;9.10;76.80
67194;DHT22;54121;53.508;49.422;2022-11-12T03:57:50;9.00;78.00
67194;DHT22;54121;53.508;49.422;2022-11-12T04:00:17;9.10;78.00
67194;DHT22;54121;53.508;49.422;2022-11-12T04:02:44;9.30;76.80
67194;DHT22;54121;53.508;49.422;2022-11-12T04:05:11;9.20;76.80
67194;DHT22;54121;53.508;49.422;2022-11-12T04:07:58;9.30;77.20
67194;DHT22;54121;53.508;49.422;2022-11-12T04:10:43;9.20;75.20
67194;DHT22;54121;53.508;49.422;2022-11-12T04:13:10;9.30;75.00
67194;DHT22;54121;53.508;49.422;2022-11-12T04:16:17;9.60;75.00
67194;DHT22;54121;53.508;49.422;2022-11-12T04:19:03;9.80;73.50
67194;DHT22;54121;53.508;49.422;2022-11-12T04:21:57;10.00;72.20
67194;DHT22;54121;53.508;49.422;2022-11-12T04:24:30;9.70;71.40
67194;DHT22;54121;53.508;49.422;2022-11-12T04:27:21;10.10;71.00
67194;DHT22;54121;53.508;49.422;2022-11-12T04:29:48;10.30;70.80
67194;DHT22;54121;53.508;49.422;2022-11-12T04:32:35;10.60;70.20
67194;DHT22;54121;53.508;49.422;2022-11-12T04:35:03;11.00;68.00
67194;DHT22;54121;53.508;49.422;2022-11-12T04:37:31;11.20;67.10
67194;DHT22;54121;53.508;49.422;2022-11-12T04:40:23;11.40;65.70
67194;DHT22;54121;53.508;49.422;2022-11-12T04:43:09;11.50;64.70
67194;DHT22;54121;53.508;49.422;2022-11-12T04:45:55;11.50;64.60
67194;DHT22;54121;53.508;49.422;2022-11-12T04:48:23;11.60;64.70
67194;DHT22;54121;53.508;49.422;2022-11-12T04:50:56;11.60;63.10
67194;DHT22;54121;53.508;49.422;2022-11-12T04:53:24;11.70;64.20
67194;DHT22;54121;53.508;49.422;2022-11-12T04:55:52;11.80;63.20
67194;DHT22;54121;53.508;49.422;2022-11-12T04:58:19;11.70;63.50
67194;DHT22;54121;53.508;49.422;2022-11-12T05:00:46;11.70;63.20
67194;DHT22;54121;53.508;49.422;2022-11-12T05:03:13;12.00;63.00
67194;DHT22;54121;53.508;49.422;2022-11-12T05:05:39;12.20;60.40
67194;DHT22;54121;53.508;49.422;2022-11-12T05:08:06;12.10;62.10
67194;DHT22;54121;53.508;49.422;2022-11-12T05:10:34;12.20;61.10
67194;DHT22;54121;53.508;49.422;2022-11-12T05:13:00;12.20;60.40
67194;DHT22;54121;53.508;49.422;2022-11-12T05:15:27;12.10;63.40
67194;DHT22;54121;53.508;49.422;2022-11-12T05:17:54;11.40;62.40
67194;DHT22;54121;53.508;49.422;2022-11-12T05:20:20;11.50;63.80
67194;DHT22;54121;53.508;49.422;2022-11-12T05:22:47;11.50;66.40
67194;DHT22;54121;53.508;49.422;2022-11-12T05:25:14;11.60;63.80
67194;DHT22;54121;53.508;49.422;2022-11-12T05:27:40;11.40;65.10
67194;DHT22;54121;53.508;49.422;2022-11-12T05:30:07;11.80;65.20
67194;DHT22;54121;53.508;49.422;2022-11-12T05:32:34;11.90;63.50
67194;DHT22;54121;53.508;49.422;2022-11-12T05:35:00;12.20;63.90
67194;DHT22;54121;53.508;49.422;2022-11-12T05:37:27;12.50;62.70
67194;DHT22;54121;53.508;49.422;2022-11-12T05:39:53;12.20;61.20
67194;DHT22;54121;53.508;49.422;2022-11-12T05:42:20;12.30;61.00
67194;DHT22;54121;53.508;49.422;2022-11-12T05:44:46;12.20;62.20
67194;DHT22;54121;53.508;49.422;2022-11-12T05:47:13;12.50;60.70
67194;DHT22;54121;53.508;49.422;2022-11-12T05:49:40;12.50;60.70
67194;DHT22;54121;53.508;49.422;2022-11-12T05:52:06;12.70;60.50
67194;DHT22;54121;53.508;49.422;2022-11-12T05:54:33;12.50;57.70
67194;DHT22;54121;53.508;49.422;2022-11-12T05:56:59;12.20;59.30
67194;DHT22;54121;53.508;49.422;2022-11-12T05:59:26;12.50;60.30
67194;DHT22;54121;53.508;49.422;2022-11-12T06:01:52;12.60;59.80
67194;DHT22;54121;53.508;49.422;2022-11-12T06:04:20;12.40;60.00
67194;DHT22;54121;53.508;49.422;2022-11-12T06:06:47;12.50;58.80
67194;DHT22;54121;53.508;49.422;2022-11-12T06:09:13;12.60;59.20
67194;DHT22;54121;53.508;49.422;2022-11-12T06:11:40;12.90;57.50
67194;DHT22;54121;53.508;49.422;2022-11-12T06:14:07;13.10;57.80
67194;DHT22;54121;53.508;49.422;2022-11-12T06:16:33;13.70;56.40
67194;DHT22;54121;53.508;49.422;2022-11-12T06:19:00;13.80;54.60
67194;DHT22;54121;53.508;49.422;2022-11-12T06:21:26;14.20;54.30
67194;DHT22;54121;53.508;49.422;2022-11-12T06:23:58;14.50;54.30
67194;DHT22;54121;53.508;49.422;2022-11-12T06:26:27;14.80;51.80
67194;DHT22;54121;53.508;49.422;2022-11-12T06:28:55;14.80;52.50
67194;DHT22;54121;53.508;49.422;2022-11-12T06:31:22;14.30;53.70
67194;DHT22;54121;53.508;49.422;2022-11-12T06:33:49;14.50;54.70
67194;DHT22;54121;53.508;49.422;2022-11-12T06:36:18;14.20;56.40
67194;DHT22;54121;53.508;49.422;2022-11-12T06:38:45;14.00;58.30
67194;DHT22;54121;53.508;49.422;2022-11-12T06:41:12;14.20;57.30
67194;DHT22;54121;53.508;49.422;2022-11-12T06:43:39;14.40;56.10
67194;DHT22;54121;53.508;49.422;2022-11-12T06:46:14;14.30;55.20
67194;DHT22;54121;53.508;49.422;2022-11-12T06:48:41;14.10;55.60
67194;DHT22;54121;53.508;49.422;2022-11-12T06:51:19;14.30;57.60
67194;DHT22;54121;53.508;49.422;2022-11-12T06:53:47;14.60;54.90
67194;DHT22;54121;53.508;49.422;2022-11-12T06:56:14;14.10;56.60
67194;DHT22;54121;53.508;49.422;2022-11-12T06:58:41;13.70;54.90
67194;DHT22;54121;53.508;49.422;2022-11-12T07:01:16;13.40;58.90
67194;DHT22;54121;53.508;49.422;2022-11-12T07:03:43;14.00;59.30
67194;DHT22;54121;53.508;49.422;2022-11-12T07:06:12;14.20;56.80
67194;DHT22;54121;53.508;49.422;2022-11-12T07:08:40;14.30;56.30
67194;DHT22;54121;53.508;49.422;2022-11-12T07:11:07;14.40;57.90
67194;DHT22;54121;53.508;49.422;2022-11-12T07:13:34;14.40;56.60
67194;DHT22;54121;53.508;49.422;2022-11-12T07:16:02;14.40;57.80
67194;DHT22;54121;53.508;49.422;2022-11-12T07:18:29;14.60;55.80
67194;DHT22;54121;53.508;49.422;2022-11-12T07:20:58;14.40;54.80
67194;DHT22;54121;53.508;49.422;2022-11-12T07:23:25;14.10;58.90
67194;DHT22;54121;53.508;49.422;2022-11-12T07:26:20;14.10;58.40
67194;DHT22;54121;53.508;49.422;2022-11-12T07:28:48;14.40;57.30
67194;DHT22;54121;53.508;49.422;2022-11-12T07:31:17;13.60;59.80
67194;DHT22;54121;53.508;49.422;2022-11-12T07:33:44;13.80;60.10
67194;DHT22;54121;53.508;49.422;2022-11-12T07:36:16;13.70;60.00
67194;DHT22;54121;53.508;49.422;2022-11-12T07:38:43;13.70;59.00
67194;DHT22;54121;53.508;49.422;2022-11-12T07:43:38;13.90;59.10
67194;DHT22;54121;53.508;49.422;2022-11-12T07:46:07;14.00;59.50
67194;DHT22;54121;53.508;49.422;2022-11-12T07:48:35;13.90;59.50
67194;DHT22;54121;53.508;49.422;2022-11-12T07:51:16;14.00;58.00
67194;DHT22;54121;53.508;49.422;2022-11-12T07:53:44;13.40;59.50
67194;DHT22;54121;53.508;49.422;2022-11-12T07:56:16;13.60;61.40
67194;DHT22;54121;53.508;49.422;2022-11-12T07:58:43;13.60;60.70
67194;DHT22;54121;53.508;49.422;2022-11-12T08:01:27;14.00;62.20
67194;DHT22;54121;53.508;49.422;2022-11-12T08:03:54;14.00;58.70
67194;DHT22;54121;53.508;49.422;2022-11-12T08:06:20;13.60;57.50
67194;DHT22;54121;53.508;49.422;2022-11-12T08:08:47;13.10;62.20
67194;DHT22;54121;53.508;49.422;2022-11-12T08:11:13;13.40;59.20
67194;DHT22;54121;53.508;49.422;2022-11-12T08:13:40;13.40;59.50
67194;DHT22;54121;53.508;49.422;2022-11-12T08:16:06;13.20;63.50
67194;DHT22;54121;53.508;49.422;2022-11-12T08:18:33;13.40;63.00
67194;DHT22;54121;53.508;49.422;2022-11-12T08:21:05;13.40;62.30
67194;DHT22;54121;53.508;49.422;2022-11-12T08:23:33;13.40;63.30
67194;DHT22;54121;53.508;49.422;2022-11-12T08:26:01;13.50;61.10
67194;DHT22;54121;53.508;49.422;2022-11-12T08:28:29;13.90;60.80
67194;DHT22;54121;53.508;49.422;2022-11-12T08:30:56;14.10;58.20
67194;DHT22;54121;53.508;49.422;2022-11-12T08:33:23;14.00;59.20
67194;DHT22;54121;53.508;49.422;2022-11-12T08:35:49;13.60;58.30
67194;DHT22;54121;53.508;49.422;2022-11-12T08:38:16;13.00;59.80
67194;DHT22;54121;53.508;49.422;2022-11-12T08:40:43;13.50;61.70
67194;DHT22;54121;53.508;49.422;2022-11-12T08:43:10;13.70;61.00
67194;DHT22;54121;53.508;49.422;2022-11-12T08:45:39;13.60;59.70
67194;DHT22;54121;53.508;49.422;2022-11-12T08:48:13;13.40;61.20
67194;DHT22;54121;53.508;49.422;2022-11-12T08:50:40;13.50;62.10
67194;DHT22;54121;53.508;49.422;2022-11-12T08:53:09;13.60;58.90
67194;DHT22;54121;53.508;49.422;2022-11-12T08:55:37;13.50;62.70
67194;DHT22;54121;53.508;49.422;2022-11-12T08:58:04;13.30;61.10
67194;DHT22;54121;53.508;49.422;2022-11-12T09:00:40;13.10;62.20
67194;DHT22;54121;53.508;49.422;2022-11-12T09:03:10;12.70;61.60
67194;DHT22;54121;53.508;49.422;2022-11-12T09:05:38;12.80;63.70
67194;DHT22;54121;53.508;49.422;2022-11-12T09:08:07;13.00;63.40
67194;DHT22;54121;53.508;49.422;2022-11-12T09:10:35;13.20;64.80
67194;DHT22;54121;53.508;49.422;2022-11-12T09:13:02;13.20;60.90
67194;DHT22;54121;53.508;49.422;2022-11-12T09:15:29;12.80;61.50
67194;DHT22;54121;53.508;49.422;2022-11-12T09:17:57;12.50;64.50
67194;DHT22;54121;53.508;49.422;2022-11-12T09:20:25;12.80;65.20
67194;DHT22;54121;53.508;49.422;2022-11-12T09:22:57;12.50;60.60
67194;DHT22;54121;53.508;49.422;2022-11-12T09:25:24;12.40;65.50
67194;DHT22;54121;53.508;49.422;2022-11-12T09:27:50;12.30;64.00
67194;DHT22;54121;53.508;49.422;2022-11-12T09:30:17;12.20;66.80
67194;DHT22;54121;53.508;49.422;2022-11-12T09:32:43;12.50;64.50
67194;DHT22;54121;53.508;49.422;2022-11-12T09:35:10;12.70;66.60
67194;DHT22;54121;53.508;49.422;2022-11-12T09:37:37;12.80;64.60
67194;DHT22;54121;53.508;49.422;2022-11-12T09:40:05;12.70;64.20
67194;DHT22;54121;53.508;49.422;2022-11-12T09:42:33;13.10;64.80
67194;DHT22;54121;53.508;49.422;2022-11-12T09:45:33;12.70;64.90
67194;DHT22;54121;53.508;49.422;2022-11-12T09:48:04;12.60;65.80
67194;DHT22;54121;53.508;49.422;2022-11-12T09:50:39;12.60;65.40
67194;DHT22;54121;53.508;49.422;2022-11-12T09:53:21;12.60;64.80
67194;DHT22;54121;53.508;49.422;2022-11-12T09:55:50;13.20;66.60
67194;DHT22;54121;53.508;49.422;2022-11-12T09:58:17;13.50;66.50
67194;DHT22;54121;53.508;49.422;2022-11-12T10:01:08;13.50;65.40
67194;DHT22;54121;53.508;49.422;2022-11-12T10:04:12;13.50;63.20
67194;DHT22;54121;53.508;49.422;2022-11-12T10:06:55;13.20;64.50
67194;DHT22;54121;53.508;49.422;2022-11-12T10:09:28;13.50;63.70
67194;DHT22;54121;53.508;49.422;2022-11-12T10:12:23;13.90;64.00
67194;DHT22;54121;53.508;49.422;2022-11-12T10:20:55;13.70;64.20
67194;DHT22;54121;53.508;49.422;2022-11-12T10:23:45;13.50;63.40
67194;DHT22;54121;53.508;49.422;2022-11-12T10:26:16;13.50;64.70
67194;DHT22;54121;53.508;49.422;2022-11-12T10:28:55;14.20;62.70
67194;DHT22;54121;53.508;49.422;2022-11-12T10:31:24;14.50;62.80
67194;DHT22;54121;53.508;49.422;2022-11-12T10:34:04;14.60;61.80
67194;DHT22;54121;53.508;49.422;2022-11-12T10:36:35;14.70;61.80
67194;DHT22;54121;53.508;49.422;2022-11-12T10:39:03;14.70;61.40
67194;DHT22;54121;53.508;49.422;2022-11-12T10:41:32;15.00;60.00
67194;DHT22;54121;53.508;49.422;2022-11-12T10:43:59;14.90;59.30
67194;DHT22;54121;53.508;49.422;2022-11-12T10:46:32;14.60;60.20
67194;DHT22;54121;53.508;49.422;2022-11-12T10:49:03;14.60;59.50
67194;DHT22;54121;53.508;49.422;2022-11-12T10:51:35;14.70;62.30
67194;DHT22;54121;53.508;49.422;2022-11-12T10:54:29;14.70;60.90
67194;DHT22;54121;53.508;49.422;2022-11-12T10:56:55;14.70;60.80
67194;DHT22;54121;53.508;49.422;2022-11-12T10:59:23;14.80;59.90
67194;DHT22;54121;53.508;49.422;2022-11-12T11:01:58;14.80;60.60
67194;DHT22;54121;53.508;49.422;2022-11-12T11:04:34;14.80;61.30
67194;DHT22;54121;53.508;49.422;2022-11-12T11:07:24;14.60;58.70
67194;DHT22;54121;53.508;49.422;2022-11-12T11:09:58;14.40;60.50
67194;DHT22;54121;53.508;49.422;2022-11-12T11:12:29;14.70;61.40
67194;DHT22;54121;53.508;49.422;2022-11-12T11:17:41;14.40;61.40
67194;DHT22;54121;53.508;49.422;2022-11-12T11:20:27;14.20;59.80
67194;DHT22;54121;53.508;49.422;2022-11-12T11:23:02;14.00;62.70
67194;DHT22;54121;53.508;49.422;2022-11-12T11:25:33;14.10;61.30
67194;DHT22;54121;53.508;49.422;2022-11-12T11:31:22;14.50;61.60
67194;DHT22;54121;53.508;49.422;2022-11-12T11:33:43;14.10;60.30
67194;DHT22;54121;53.508;49.422;2022-11-12T11:36:20;14.50;61.60
67194;DHT22;54121;53.508;49.422;2022-11-12T11:39:00;14.70;60.40
67194;DHT22;54121;53.508;49.422;2022-11-12T11:47:11;13.90;62.70
67194;DHT22;54121;53.508;49.422;2022-11-12T11:57:54;14.30;60.50
67194;DHT22;54121;53.508;49.422;2022-11-12T12:00:24;14.20;61.40
67194;DHT22;54121;53.508;49.422;2022-11-12T12:03:15;14.50;61.70
67194;DHT22;54121;53.508;49.422;2022-11-12T12:06:08;15.00;60.60
67194;DHT22;54121;53.508;49.422;2022-11-12T12:09:06;14.90;59.80
67194;DHT22;54121;53.508;49.422;2022-11-12T12:11:41;14.90;60.50
67194;DHT22;54121;53.508;49.422;2022-11-12T12:17:14;15.50;58.50
67194;DHT22;54121;53.508;49.422;2022-11-12T12:22:39;15.20;57.10
67194;DHT22;54121;53.508;49.422;2022-11-12T12:25:17;15.20;57.30
67194;DHT22;54121;53.508;49.422;2022-11-12T12:30:44;14.90;58.30
67194;DHT22;54121;53.508;49.422;2022-11-12T12:35:52;14.70;56.60
67194;DHT22;54121;53.508;49.422;2022-11-12T12:38:45;14.70;58.80
67194;DHT22;54121;53.508;49.422;2022-11-12T12:44:02;15.10;58.00
67194;DHT22;54121;53.508;49.422;2022-11-12T12:46:32;15.40;57.30
67194;DHT22;54121;53.508;49.422;2022-11-12T12:49:03;15.20;58.30
67194;DHT22;54121;53.508;49.422;2022-11-12T12:51:32;15.40;58.30
67194;DHT22;54121;53.508;49.422;2022-11-12T12:53:59;15.50;56.00
67194;DHT22;54121;53.508;49.422;2022-11-12T12:58:59;15.60;57.40
67194;DHT22;54121;53.508;49.422;2022-11-12T13:01:35;15.30;53.90
67194;DHT22;54121;53.508;49.422;2022-11-12T13:04:07;15.40;57.70
67194;DHT22;54121;53.508;49.422;2022-11-12T13:06:36;15.40;57.50
67194;DHT22;54121;53.508;49.422;2022-11-12T13:09:19;15.20;58.70
67194;DHT22;54121;53.508;49.422;2022-11-12T13:11:51;15.40;57.80
67194;DHT22;54121;53.508;49.422;2022-11-12T13:19:46;14.70;59.10
67194;DHT22;54121;53.508;49.422;2022-11-12T13:54:00;13.60;60.80
67194;DHT22;54121;53.508;49.422;2022-11-12T13:56:34;13.60;63.00
67194;DHT22;54121;53.508;49.422;2022-11-12T13:59:15;13.50;64.40
67194;DHT22;54121;53.508;49.422;2022-11-12T14:01:42;13.40;62.00
67194;DHT22;54121;53.508;49.422;2022-11-12T14:04:20;13.30;64.30
67194;DHT22;54121;53.508;49.422;2022-11-12T14:07:03;13.50;64.60
67194;DHT22;54121;53.508;49.422;2022-11-12T14:12:53;12.80;64.30
67194;DHT22;54121;53.508;49.422;2022-11-12T14:20:39;12.20;66.60
67194;DHT22;54121;53.508;49.422;2022-11-12T14:25:49;12.00;66.80
67194;DHT22;54121;53.508;49.422;2022-11-12T14:28:27;11.60;68.00
67194;DHT22;54121;53.508;49.422;2022-11-12T14:30:56;11.50;69.40
67194;DHT22;54121;53.508;49.422;2022-11-12T14:33:25;11.50;67.90
67194;DHT22;54121;53.508;49.422;2022-11-12T14:35:53;11.40;70.20
67194;DHT22;54121;53.508;49.422;2022-11-12T14:38:23;11.10;69.10
67194;DHT22;54121;53.508;49.422;2022-11-12T14:40:57;11.30;71.00
67194;DHT22;54121;53.508;49.422;2022-11-12T14:43:32;11.20;70.80
67194;DHT22;54121;53.508;49.422;2022-11-12T14:46:01;11.10;71.60
67194;DHT22;54121;53.508;49.422;2022-11-12T14:48:31;11.00;71.90
67194;DHT22;54121;53.508;49.422;2022-11-12T14:51:04;10.90;71.10
67194;DHT22;54121;53.508;49.422;2022-11-12T14:53:37;10.90;72.20
67194;DHT22;54121;53.508;49.422;2022-11-12T14:56:08;10.90;72.60
67194;DHT22;54121;53.508;49.422;2022-11-12T14:58:38;10.80;72.30
67194;DHT22;54121;53.508;49.422;2022-11-12T15:01:29;10.80;72.80
67194;DHT22;54121;53.508;49.422;2022-11-12T15:04:19;10.60;72.80
67194;DHT22;54121;53.508;49.422;2022-11-12T15:06:56;10.60;73.70
67194;DHT22;54121;53.508;49.422;2022-11-12T15:09:37;10.60;74.10
67194;DHT22;54121;53.508;49.422;2022-11-12T15:12:04;10.60;75.70
67194;DHT22;54121;53.508;49.422;2022-11-12T15:14:32;9.50;73.80
67194;DHT22;54121;53.508;49.422;2022-11-12T15:16:59;10.80;73.70
67194;DHT22;54121;53.508;49.422;2022-11-12T15:19:27;10.80;71.90
67194;DHT22;54121;53.508;49.422;2022-11-12T15:21:59;10.60;72.80
67194;DHT22;54121;53.508;49.422;2022-11-12T15:24:36;10.50;74.00
67194;DHT22;54121;53.508;49.422;2022-11-12T15:27:26;10.40;74.70
67194;DHT22;54121;53.508;49.422;2022-11-12T15:33:06;10.60;76.40
67194;DHT22;54121;53.508;49.422;2022-11-12T15:35:34;10.70;75.50
67194;DHT22;54121;53.508;49.422;2022-11-12T15:38:14;10.60;76.00
67194;DHT22;54121;53.508;49.422;2022-11-12T15:40:45;10.50;77.00
67194;DHT22;54121;53.508;49.422;2022-11-12T15:43:24;10.40;77.50
67194;DHT22;54121;53.508;49.422;2022-11-12T15:45:52;10.20;77.90
67194;DHT22;54121;53.508;49.422;2022-11-12T15:48:20;10.40;78.30
67194;DHT22;54121;53.508;49.422;2022-11-12T15:50:47;10.30;78.50
67194;DHT22;54121;53.508;49.422;2022-11-12T15:53:15;10.20;79.50
67194;DHT22;54121;53.508;49.422;2022-11-12T15:55:42;10.20;80.20
67194;DHT22;54121;53.508;49.422;2022-11-12T15:58:17;10.20;80.10
67194;DHT22;54121;53.508;49.422;2022-11-12T16:00:45;9.90;81.00
67194;DHT22;54121;53.508;49.422;2022-11-12T16:03:13;9.90;83.10
67194;DHT22;54121;53.508;49.422;2022-11-12T16:05:41;10.00;82.50
67194;DHT22;54121;53.508;49.422;2022-11-12T16:08:08;9.90;83.00
67194;DHT22;54121;53.508;49.422;2022-11-12T16:10:35;9.90;83.60
67194;DHT22;54121;53.508;49.422;2022-11-12T16:13:03;9.90;83.80
67194;DHT22;54121;53.508;49.422;2022-11-12T16:15:31;9.90;84.40
67194;DHT22;54121;53.508;49.422;2022-11-12T16:17:58;9.80;83.20
67194;DHT22;54121;53.508;49.422;2022-11-12T16:20:29;9.80;83.90
67194;DHT22;54121;53.508;49.422;2022-11-12T16:22:56;10.10;84.40
67194;DHT22;54121;53.508;49.422;2022-11-12T16:25:27;10.10;83.00
67194;DHT22;54121;53.508;49.422;2022-11-12T16:27:55;9.90;83.00
67194;DHT22;54121;53.508;49.422;2022-11-12T16:30:25;10.10;83.20
67194;DHT22;54121;53.508;49.422;2022-11-12T16:32:54;9.80;82.50
67194;DHT22;54121;53.508;49.422;2022-11-12T16:35:21;9.80;83.80
67194;DHT22;54121;53.508;49.422;2022-11-12T16:37:48;9.90;83.70
67194;DHT22;54121;53.508;49.422;2022-11-12T16:40:18;9.80;84.40
67194;DHT22;54121;53.508;49.422;2022-11-12T16:42:45;9.70;84.60
67194;DHT22;54121;53.508;49.422;2022-11-12T16:45:19;9.80;85.20
67194;DHT22;54121;53.508;49.422;2022-11-12T16:47:49;9.80;83.90
67194;DHT22;54121;53.508;49.422;2022-11-12T16:50:18;9.60;83.80
67194;DHT22;54121;53.508;49.422;2022-11-12T16:52:47;9.50;84.90
67194;DHT22;54121;53.508;49.422;2022-11-12T16:55:15;9.50;84.80
67194;DHT22;54121;53.508;49.422;2022-11-12T16:57:42;9.40;86.60
67194;DHT22;54121;53.508;49.422;2022-11-12T17:00:14;9.40;87.00
67194;DHT22;54121;53.508;49.422;2022-11-12T17:02:41;9.40;87.50
67194;DHT22;54121;53.508;49.422;2022-11-12T17:05:22;9.30;86.20
67194;DHT22;54121;53.508;49.422;2022-11-12T17:07:54;9.30;87.60
67194;DHT22;54121;53.508;49.422;2022-11-12T17:10:21;9.10;87.80
67194;DHT22;54121;53.508;49.422;2022-11-12T17:12:50;9.10;88.50
67194;DHT22;54121;53.508;49.422;2022-11-12T17:15:16;9.20;89.20
67194;DHT22;54121;53.508;49.422;2022-11-12T17:17:43;9.20;88.60
67194;DHT22;54121;53.508;49.422;2022-11-12T17:20:10;9.20;87.40
67194;DHT22;54121;53.508;49.422;2022-11-12T17:22:37;9.20;89.20
67194;DHT22;54121;53.508;49.422;2022-11-12T17:25:04;9.30;87.90
67194;DHT22;54121;53.508;49.422;2022-11-12T17:27:31;9.40;88.20